Terminal Aerodrome Forecast
Issued by NWS Sterling, VA

Current Version | Previous Version | Text Only | Print | Product List | Glossary Off
Versions: 1 2 3 4 5 6 7 8 9 10 11 12 13 14 15 16 17 18 19

830
FTUS41 KLWX 232336
TAFMRB
TAF
KMRB 232336Z 2400/2424 14008KT P6SM BKN060
     FM241000 VRB03KT 6SM -RA OVC090
     FM241300 09005KT 4SM RA OVC035
     FM241600 11008KT 2SM RA OVC010
     FM242300 07008KT 2SM RA OVC008=

USA.gov is the U.S. government's official web portal to all federal, state and local government web resources and services.